createdAt,value
2018-07-17T00:02:00.118Z,69.10
2018-07-17T00:05:54.450Z,70.30
2018-07-17T00:09:47.847Z,69.90
2018-07-17T00:13:41.893Z,70.50
2018-07-17T00:17:36.186Z,71.10
2018-07-17T00:21:30.319Z,72.00
2018-07-17T00:25:24.297Z,72.70
2018-07-17T00:29:18.501Z,73.30
2018-07-17T00:33:12.508Z,74.50
2018-07-17T00:37:06.422Z,75.70
2018-07-17T00:41:00.366Z,77.90
2018-07-17T00:44:54.331Z,79.50
2018-07-17T00:48:48.231Z,80.70
2018-07-17T00:52:42.218Z,81.30
2018-07-17T00:56:36.178Z,81.80
2018-07-17T01:00:47.500Z,82.00
2018-07-17T01:04:46.740Z,81.70
2018-07-17T01:08:45.938Z,82.50
2018-07-17T01:12:39.128Z,84.90
2018-07-17T01:16:33.189Z,88.00
2018-07-17T01:20:27.165Z,89.50
2018-07-17T01:24:20.591Z,90.50
2018-07-17T01:28:14.500Z,91.40
2018-07-17T01:32:08.527Z,91.80
2018-07-17T01:39:56.103Z,91.90
2018-07-17T01:43:49.966Z,91.90
2018-07-17T01:47:43.883Z,92.20
2018-07-17T01:51:37.907Z,92.70
2018-07-17T01:55:32.175Z,92.70
2018-07-17T01:59:26.147Z,92.90
2018-07-17T02:03:20.118Z,93.10
2018-07-17T02:07:14.107Z,93.50
2018-07-17T02:11:08.035Z,93.30
2018-07-17T02:15:02.190Z,93.20
2018-07-17T02:18:56.205Z,93.00
2018-07-17T02:22:49.708Z,92.80
2018-07-17T02:26:43.659Z,92.50
2018-07-17T02:30:37.635Z,92.10
2018-07-17T02:34:31.649Z,92.40
2018-07-17T02:38:25.551Z,92.30
2018-07-17T02:42:19.625Z,92.40
2018-07-17T02:46:13.704Z,92.40
2018-07-17T02:50:07.727Z,92.40
2018-07-17T02:54:02.200Z,92.50
2018-07-17T02:57:56.240Z,92.40
2018-07-17T03:01:50.229Z,92.30
2018-07-17T03:05:44.176Z,92.30
2018-07-17T03:09:38.130Z,92.40
2018-07-17T03:13:31.548Z,92.40
2018-07-17T03:17:25.611Z,92.40
2018-07-17T03:21:19.587Z,92.50
2018-07-17T03:25:13.543Z,92.50
2018-07-17T03:33:01.087Z,92.40
2018-07-17T03:36:55.023Z,92.50
2018-07-17T03:40:49.014Z,93.30
2018-07-17T03:44:43.040Z,93.50
2018-07-17T03:48:37.078Z,93.50
2018-07-17T03:52:31.257Z,93.40
2018-07-17T03:56:23.979Z,94.00
2018-07-17T04:00:17.894Z,94.20
2018-07-17T04:04:11.931Z,94.30
2018-07-17T04:08:06.107Z,94.60
2018-07-17T04:12:00.149Z,94.60
2018-07-17T04:15:53.689Z,94.40
2018-07-17T04:19:47.599Z,94.20
2018-07-17T04:23:41.881Z,93.90
2018-07-17T04:27:35.969Z,93.30
2018-07-17T04:31:30.914Z,93.20
2018-07-17T04:35:25.435Z,92.70
2018-07-17T04:39:19.442Z,92.00
2018-07-17T04:43:13.393Z,90.50
2018-07-17T04:47:07.338Z,89.20
2018-07-17T04:51:01.895Z,87.60
2018-07-17T04:54:55.888Z,87.70
2018-07-17T04:58:49.972Z,87.60
2018-07-17T05:02:44.080Z,88.10
2018-07-17T05:06:38.156Z,89.10
2018-07-17T05:10:32.164Z,89.40
2018-07-17T05:14:25.668Z,90.30
2018-07-17T05:18:19.727Z,90.60
2018-07-17T05:22:13.771Z,90.90
2018-07-17T05:26:08.752Z,91.00
2018-07-17T05:30:02.797Z,90.90
2018-07-17T05:33:57.069Z,90.90
2018-07-17T05:37:51.266Z,90.90
2018-07-17T05:41:45.496Z,91.10
2018-07-17T05:45:39.471Z,91.00
2018-07-17T05:49:33.443Z,91.30
2018-07-17T05:53:27.836Z,91.30
2018-07-17T05:57:21.833Z,91.40
2018-07-17T06:01:15.802Z,91.60
2018-07-17T06:05:10.366Z,92.00
2018-07-17T06:09:06.030Z,91.70
2018-07-17T06:13:00.152Z,91.70
2018-07-17T06:16:54.234Z,91.90
2018-07-17T06:20:47.958Z,91.70
2018-07-17T06:24:42.127Z,91.70
2018-07-17T06:28:36.053Z,91.80
2018-07-17T06:32:30.161Z,91.90
2018-07-17T06:36:24.105Z,91.70
2018-07-17T06:40:18.065Z,91.50
2018-07-17T06:44:12.235Z,91.40
2018-07-17T06:48:06.289Z,91.10
2018-07-17T06:52:00.703Z,90.80
2018-07-17T06:55:54.705Z,90.50
2018-07-17T06:59:48.683Z,89.80
2018-07-17T07:03:42.645Z,89.70
2018-07-17T07:07:36.594Z,88.10
2018-07-17T07:11:30.682Z,86.30
2018-07-17T07:15:24.824Z,84.20
2018-07-17T07:19:19.233Z,81.10
2018-07-17T07:23:14.313Z,79.30
2018-07-17T07:27:08.582Z,76.20
2018-07-17T07:31:02.777Z,70.50
2018-07-17T07:34:57.222Z,67.10
2018-07-17T07:38:51.970Z,66.30
2018-07-17T07:42:46.085Z,66.40
2018-07-17T07:46:40.927Z,67.50
2018-07-17T07:50:35.281Z,67.30
2018-07-17T07:54:29.391Z,67.50
2018-07-17T07:58:23.311Z,68.30
2018-07-17T08:02:17.299Z,67.90
2018-07-17T08:06:11.518Z,68.00
2018-07-17T08:10:06.154Z,67.80
2018-07-17T08:14:01.518Z,68.00
2018-07-17T08:17:55.235Z,67.90
2018-07-17T08:21:49.200Z,70.10
2018-07-17T08:25:43.152Z,71.10
2018-07-17T08:29:37.154Z,72.30
2018-07-17T08:33:31.748Z,73.30
2018-07-17T08:37:25.664Z,73.10
2018-07-17T08:41:19.650Z,72.10
2018-07-17T08:45:13.797Z,72.90
2018-07-17T08:49:07.973Z,73.10
2018-07-17T08:53:02.020Z,71.70
2018-07-17T08:56:56.081Z,68.60
2018-07-17T09:00:50.049Z,67.50
2018-07-17T09:04:44.180Z,67.20
2018-07-17T09:08:38.169Z,62.40
2018-07-17T09:12:32.927Z,60.00
2018-07-17T09:16:26.469Z,63.60
2018-07-17T09:20:20.551Z,65.00
2018-07-17T09:24:15.610Z,65.90
2018-07-17T09:28:10.039Z,65.80
2018-07-17T09:32:04.094Z,65.70
2018-07-17T09:35:58.642Z,60.50
2018-07-17T09:39:52.942Z,59.00
2018-07-17T09:43:47.104Z,58.70
2018-07-17T09:47:41.210Z,57.00
2018-07-17T09:51:35.483Z,56.60
2018-07-17T09:55:30.463Z,56.70
2018-07-17T09:59:24.453Z,56.90
2018-07-17T10:03:18.525Z,56.90
2018-07-17T10:07:12.727Z,57.00
2018-07-17T10:11:06.858Z,56.60
2018-07-17T10:15:00.920Z,56.50
2018-07-17T10:18:54.483Z,55.60
2018-07-17T10:22:48.441Z,55.40
2018-07-17T10:26:42.552Z,55.30
2018-07-17T10:30:36.359Z,54.50
2018-07-17T10:34:30.438Z,54.10
2018-07-17T10:38:24.334Z,54.60
2018-07-17T10:42:25.220Z,54.20
2018-07-17T10:46:19.218Z,52.50
2018-07-17T10:50:13.159Z,51.80
2018-07-17T10:54:07.481Z,51.50
2018-07-17T10:58:01.564Z,50.90
2018-07-17T11:01:55.638Z,51.10
2018-07-17T11:05:49.655Z,49.80
2018-07-17T11:09:44.514Z,49.40
2018-07-17T11:13:38.579Z,49.20
2018-07-17T11:17:32.905Z,48.50
2018-07-17T11:21:26.722Z,48.00
2018-07-17T11:25:20.669Z,47.70
2018-07-17T11:29:14.664Z,47.80
2018-07-17T11:33:09.179Z,48.00
2018-07-17T11:37:03.715Z,46.80
2018-07-17T11:40:57.868Z,47.20
2018-07-17T11:48:45.951Z,47.00
2018-07-17T11:52:43.716Z,46.30
2018-07-17T11:56:36.472Z,46.30
2018-07-17T12:00:31.216Z,46.30
2018-07-17T12:04:25.321Z,46.10
2018-07-17T12:08:19.270Z,46.10
2018-07-17T12:12:13.366Z,46.00
2018-07-17T12:16:07.660Z,46.30
2018-07-17T12:20:01.204Z,46.90
2018-07-17T12:23:55.153Z,46.20
2018-07-17T12:27:50.916Z,46.20
2018-07-17T12:31:45.003Z,45.30
2018-07-17T12:35:39.085Z,44.80
2018-07-17T12:39:33.043Z,44.20
2018-07-17T12:43:27.123Z,44.00
2018-07-17T12:47:21.197Z,44.50
2018-07-17T12:51:15.210Z,44.70
2018-07-17T12:55:10.091Z,44.60
2018-07-17T12:59:04.145Z,45.20
2018-07-17T13:02:58.160Z,45.00
2018-07-17T13:06:52.182Z,44.30
2018-07-17T13:10:47.193Z,44.00
2018-07-17T13:14:41.404Z,44.10
2018-07-17T13:18:34.980Z,43.20
2018-07-17T13:22:29.024Z,43.50
2018-07-17T13:26:23.031Z,43.30
2018-07-17T13:30:17.025Z,43.00
2018-07-17T13:34:10.949Z,42.20
2018-07-17T13:38:04.958Z,43.10
2018-07-17T13:41:59.110Z,42.60
2018-07-17T13:45:53.348Z,42.90
2018-07-17T13:49:48.138Z,42.70
2018-07-17T13:53:42.475Z,42.50
2018-07-17T13:57:36.527Z,42.10
2018-07-17T14:01:30.885Z,42.10
2018-07-17T14:05:25.997Z,42.70
2018-07-17T14:09:21.644Z,42.10
2018-07-17T14:13:15.717Z,41.80
2018-07-17T14:17:09.222Z,42.50
2018-07-17T14:21:03.363Z,42.20
2018-07-17T14:24:57.487Z,42.40
2018-07-17T14:28:51.759Z,41.80
2018-07-17T14:32:45.775Z,41.30
2018-07-17T14:36:39.964Z,41.00
2018-07-17T14:40:34.123Z,41.50
2018-07-17T14:44:28.155Z,40.90
2018-07-17T14:48:22.645Z,40.50
2018-07-17T14:52:16.775Z,40.10
2018-07-17T14:56:10.971Z,41.50
2018-07-17T15:00:08.254Z,41.20
2018-07-17T15:04:02.379Z,40.60
2018-07-17T15:07:56.472Z,41.20
2018-07-17T15:11:50.527Z,41.20
2018-07-17T15:15:44.237Z,42.00
2018-07-17T15:19:38.324Z,43.10
2018-07-17T15:23:32.297Z,44.10
2018-07-17T15:27:26.410Z,44.30
2018-07-17T15:31:20.529Z,44.30
2018-07-17T15:35:14.939Z,44.40
2018-07-17T15:39:10.348Z,44.80
2018-07-17T15:43:04.279Z,45.10
2018-07-17T15:46:58.230Z,44.20
2018-07-17T15:50:52.373Z,44.30
2018-07-17T15:54:46.505Z,44.50
2018-07-17T15:58:40.823Z,44.90
2018-07-17T16:02:34.915Z,44.40
2018-07-17T16:06:30.516Z,45.00
2018-07-17T16:10:24.627Z,45.50
2018-07-17T16:14:18.494Z,46.00
2018-07-17T16:18:12.755Z,46.30
2018-07-17T16:22:06.984Z,46.00
2018-07-17T16:26:01.370Z,44.50
2018-07-17T16:29:55.466Z,44.20
2018-07-17T16:33:49.794Z,44.30
2018-07-17T16:37:43.786Z,45.60
2018-07-17T16:41:38.715Z,46.70
2018-07-17T16:45:32.747Z,46.90
2018-07-17T16:49:26.788Z,46.40
2018-07-17T16:53:20.810Z,45.90
2018-07-17T16:57:14.845Z,45.00
2018-07-17T17:01:08.875Z,45.40
2018-07-17T17:05:03.025Z,44.90
2018-07-17T17:08:57.902Z,45.20
2018-07-17T17:12:51.803Z,45.60
2018-07-17T17:16:45.954Z,46.00
2018-07-17T17:28:26.993Z,46.90
2018-07-17T17:36:14.714Z,47.70
2018-07-17T17:40:08.889Z,48.10
2018-07-17T17:44:03.532Z,49.30
2018-07-17T17:47:57.627Z,50.10
2018-07-17T17:51:51.600Z,51.30
2018-07-17T17:55:45.559Z,51.20
2018-07-17T17:59:39.515Z,51.20
2018-07-17T18:03:33.506Z,51.30
2018-07-17T18:07:27.544Z,50.80
2018-07-17T18:11:21.641Z,51.80
2018-07-17T18:15:15.154Z,52.70
2018-07-17T18:19:09.758Z,53.80
2018-07-17T18:23:03.855Z,54.80
2018-07-17T18:26:58.662Z,55.40
2018-07-17T18:30:52.665Z,56.10
2018-07-17T18:38:41.423Z,57.40
2018-07-17T18:42:35.510Z,58.30
2018-07-17T18:46:29.583Z,59.30
2018-07-17T18:50:23.880Z,60.20
2018-07-17T18:54:18.184Z,61.10
2018-07-17T18:58:12.218Z,61.20
2018-07-17T19:02:06.534Z,61.30
2018-07-17T19:06:00.545Z,61.90
2018-07-17T19:09:54.545Z,61.80
2018-07-17T19:13:48.716Z,62.00
2018-07-17T19:17:43.001Z,62.00
2018-07-17T19:21:37.029Z,62.30
2018-07-17T19:25:31.939Z,62.70
2018-07-17T19:29:25.927Z,63.20
2018-07-17T19:33:19.949Z,63.70
2018-07-17T19:37:13.941Z,64.40
2018-07-17T19:41:07.945Z,64.80
2018-07-17T19:45:01.945Z,65.60
2018-07-17T19:48:55.962Z,65.80
2018-07-17T19:52:50.358Z,66.10
2018-07-17T19:56:44.289Z,65.80
2018-07-17T20:00:38.231Z,66.10
2018-07-17T20:04:32.403Z,64.90
2018-07-17T20:08:26.340Z,65.10
2018-07-17T20:12:20.265Z,65.30
2018-07-17T20:16:13.663Z,63.60
2018-07-17T20:20:08.178Z,63.10
2018-07-17T20:24:02.059Z,61.90
2018-07-17T20:27:56.080Z,61.00
2018-07-17T20:31:50.108Z,61.80
2018-07-17T20:35:44.277Z,62.40
2018-07-17T20:39:38.496Z,62.20
2018-07-17T20:43:32.544Z,62.80
2018-07-17T20:47:26.629Z,63.20
2018-07-17T20:51:20.645Z,63.70
2018-07-17T20:55:14.619Z,64.00
2018-07-17T20:59:08.796Z,64.20
2018-07-17T21:03:02.745Z,64.70
2018-07-17T21:06:56.806Z,65.30
2018-07-17T21:10:50.798Z,65.50
2018-07-17T21:14:45.315Z,65.80
2018-07-17T21:18:40.713Z,66.40
2018-07-17T21:22:37.016Z,66.80
2018-07-17T21:26:31.241Z,67.50
2018-07-17T21:30:25.442Z,68.30
2018-07-17T21:34:20.544Z,69.00
2018-07-17T21:38:14.568Z,69.70
2018-07-17T21:42:08.579Z,70.00
2018-07-17T21:46:02.608Z,71.20
2018-07-17T21:49:57.662Z,71.10
2018-07-17T21:53:52.956Z,72.40
2018-07-17T21:57:47.477Z,72.80
2018-07-17T22:01:42.207Z,73.80
2018-07-17T22:05:37.425Z,74.60
2018-07-17T22:09:32.629Z,75.30
2018-07-17T22:13:26.935Z,76.00
2018-07-17T22:17:20.582Z,77.30
2018-07-17T22:25:08.416Z,79.70
2018-07-17T22:29:03.276Z,80.70
2018-07-17T22:36:52.040Z,82.50
2018-07-17T22:40:46.160Z,83.10
2018-07-17T22:44:38.830Z,83.30
2018-07-17T22:48:33.002Z,83.80
2018-07-17T22:52:27.007Z,83.90
2018-07-17T22:56:27.565Z,84.40
2018-07-17T23:00:22.023Z,85.20
2018-07-17T23:04:16.247Z,86.10
2018-07-17T23:08:10.642Z,87.30
2018-07-17T23:12:04.644Z,88.60
2018-07-17T23:19:53.374Z,90.40
2018-07-17T23:23:46.870Z,90.90
2018-07-17T23:27:40.836Z,91.60
2018-07-17T23:31:34.940Z,92.10
2018-07-17T23:35:28.951Z,92.70
2018-07-17T23:43:16.482Z,93.40
2018-07-17T23:47:10.489Z,93.80
2018-07-17T23:51:04.487Z,94.30
2018-07-17T23:54:58.395Z,94.50
2018-07-17T23:58:52.533Z,94.90
